Truckee Tahoe Airport
KTRK : now visible

Airfield :











YOU CAN JOIN US ON...

 
LOGIN :

Register | Disclaimer

   EN    FR    IT 

 









Legend :    VFR   Marginal VFR   IFR   Intensive IFR   Very Intensive IFR
Visi :
Ceiling :
>= 8 km
>= 3000ft
5 to 8 km
1000 to 3000 ft
1500m to 5 km
500 to 1000 ft
800 to 1500m
200 to 500 ft
< 800m
< 200 ft
Symbols :   Thunderstorms  Fog  Heavy snow  Heavy precipitations  Wind > 20 kt






- Airport Elevation : 5900 ft


KTRK - Truckee Tahoe

CURRENT METAR :
  • 172155Z 01005KT 10SM SKC 09/M21 A3011

EXPIRED METARs :
  • 172055Z 00000KT 10SM SKC 08/M15 A3014
  • 171945Z 00000KT 10SM SKC 07/M17 A3019

TAF KTRK
Valid from the 17 at 18:00 until the 18 at 18:00 UTC


171724Z 1718/1818 VRB03KT P6SM BCFG SCT180
FM171900 VRB04KT P6SM SCT180
FM172200 35007KT P6SM SCT180
FM180300 VRB03KT P6SM FEW100 BKN180



MET'MAP, your aeronautical weather chart ! - Copyright ORBIFLY December 2007 - Disclaimer

ORBIFLY MET'MAP TEAM :

Programming & Development : Alexandra Zaïnal
Concept & original design : Baudouin d'Aumeries
Assistance for programming : Marc-Olivier Méhu
Technical & hardware support : Manuel Goepfert

Contact : metmap@orbifly.com




SOURCES & CREDITS :

   NOAA       Earth
Advisory